createdAt,value
2023-02-28T00:00:53.748Z,3.84
2023-02-28T00:01:53.799Z,3.89
2023-02-28T00:02:53.807Z,3.03
2023-02-28T00:03:53.819Z,3.62
2023-02-28T00:04:53.804Z,3.42
2023-02-28T00:05:53.838Z,3.33
2023-02-28T00:06:53.862Z,3.57
2023-02-28T00:07:53.921Z,3.35
2023-02-28T00:08:53.942Z,3.50
2023-02-28T00:09:53.982Z,3.69
2023-02-28T00:10:53.985Z,3.63
2023-02-28T00:11:54.058Z,3.70
2023-02-28T00:12:54.069Z,3.72
2023-02-28T00:13:54.117Z,3.95
2023-02-28T00:14:54.162Z,3.71
2023-02-28T00:15:54.152Z,4.16
2023-02-28T00:16:54.237Z,3.51
2023-02-28T00:17:54.238Z,3.87
2023-02-28T00:18:54.283Z,3.78
2023-02-28T00:19:54.321Z,4.31
2023-02-28T00:20:54.358Z,3.86
2023-02-28T00:21:54.397Z,3.57
2023-02-28T00:22:54.480Z,3.43
2023-02-28T00:23:54.530Z,3.92
2023-02-28T00:24:54.575Z,3.60
2023-02-28T00:25:54.574Z,4.18
2023-02-28T00:26:54.611Z,4.26
2023-02-28T00:27:54.693Z,3.76
2023-02-28T00:28:54.704Z,4.04
2023-02-28T00:29:54.693Z,4.15
2023-02-28T00:30:54.801Z,3.94
2023-02-28T00:31:54.774Z,3.54
2023-02-28T00:32:54.794Z,4.31
2023-02-28T00:33:54.838Z,4.21
2023-02-28T00:34:54.948Z,4.16
2023-02-28T00:35:54.918Z,4.20
2023-02-28T00:36:54.940Z,4.06
2023-02-28T00:37:54.988Z,3.46
2023-02-28T00:38:55.012Z,3.61
2023-02-28T00:39:55.029Z,3.82
2023-02-28T00:40:55.080Z,3.77
2023-02-28T00:41:55.119Z,4.28
2023-02-28T00:42:55.133Z,4.06
2023-02-28T00:43:55.210Z,4.35
2023-02-28T00:44:55.212Z,3.68
2023-02-28T00:45:55.284Z,3.96
2023-02-28T00:46:55.275Z,4.33
2023-02-28T00:47:55.330Z,3.88
2023-02-28T00:48:55.374Z,3.99
2023-02-28T00:49:55.389Z,4.07
2023-02-28T00:50:55.416Z,3.94
2023-02-28T00:51:55.423Z,3.78
2023-02-28T00:52:55.505Z,3.43
2023-02-28T00:53:55.506Z,3.51
2023-02-28T00:54:55.575Z,4.19
2023-02-28T00:55:55.589Z,4.04
2023-02-28T00:56:55.614Z,3.78
2023-02-28T01:22:56.451Z,3.75
2023-02-28T01:23:56.498Z,4.56
2023-02-28T01:24:56.540Z,4.18
2023-02-28T01:25:56.570Z,3.65
2023-02-28T01:26:56.593Z,4.39
2023-02-28T01:27:56.593Z,3.73
2023-02-28T01:28:56.644Z,4.48
2023-02-28T01:29:56.681Z,4.45
2023-02-28T01:30:56.716Z,4.70
2023-02-28T01:31:56.753Z,4.14
2023-02-28T01:32:56.751Z,3.85
2023-02-28T01:33:56.811Z,3.58
2023-02-28T01:34:56.812Z,3.81
2023-02-28T01:35:56.874Z,3.53
2023-02-28T01:36:56.855Z,3.80
2023-02-28T01:38:01.248Z,3.80
2023-02-28T01:38:57.869Z,4.09
2023-02-28T01:39:56.873Z,3.66
2023-02-28T01:40:56.814Z,4.14
2023-02-28T01:41:56.805Z,3.85
2023-02-28T01:42:56.821Z,3.81
2023-02-28T01:43:56.775Z,3.62
2023-02-28T01:44:56.774Z,3.74
2023-02-28T01:45:56.735Z,4.19
2023-02-28T01:46:56.720Z,4.27
2023-02-28T01:47:56.704Z,4.41
2023-02-28T01:48:56.701Z,4.50
2023-02-28T01:49:56.668Z,4.02
2023-02-28T01:50:56.666Z,4.26
2023-02-28T01:51:56.635Z,4.40
2023-02-28T01:52:56.618Z,4.35
2023-02-28T01:53:56.652Z,3.93
2023-02-28T01:54:56.693Z,3.94
2023-02-28T01:55:56.698Z,4.67
2023-02-28T01:56:56.718Z,4.31
2023-02-28T01:57:56.758Z,3.98
2023-02-28T01:58:56.742Z,4.16
2023-02-28T01:59:56.773Z,4.03
2023-02-28T02:00:56.782Z,3.90
2023-02-28T02:01:56.914Z,4.07
2023-02-28T02:02:56.867Z,4.62
2023-02-28T02:03:56.819Z,3.83
2023-02-28T02:04:56.820Z,4.02
2023-02-28T02:05:56.830Z,4.45
2023-02-28T02:06:56.828Z,4.28
2023-02-28T02:07:56.832Z,4.23
2023-02-28T02:08:56.885Z,4.29
2023-02-28T02:09:56.866Z,3.94
2023-02-28T02:10:56.896Z,3.89
2023-02-28T02:11:56.906Z,4.48
2023-02-28T02:12:56.910Z,4.09
2023-02-28T02:13:56.899Z,3.95
2023-02-28T02:14:56.911Z,4.72
2023-02-28T02:15:56.972Z,5.46
2023-02-28T02:16:56.928Z,3.62
2023-02-28T02:17:56.943Z,4.35
2023-02-28T02:18:56.940Z,4.24
2023-02-28T02:19:56.940Z,4.78
2023-02-28T02:20:56.980Z,4.05
2023-02-28T02:21:57.010Z,3.59
2023-02-28T02:22:56.994Z,4.70
2023-02-28T02:23:57.046Z,4.39
2023-02-28T02:24:57.006Z,4.17
2023-02-28T02:25:57.022Z,4.47
2023-02-28T02:26:57.062Z,3.65
2023-02-28T02:27:57.061Z,4.14
2023-02-28T02:37:57.134Z,4.48
2023-02-28T02:39:57.155Z,4.15
2023-02-28T02:41:57.140Z,3.70
2023-02-28T02:51:57.142Z,4.26
2023-02-28T02:52:57.182Z,4.09
2023-02-28T02:53:57.129Z,4.11
2023-02-28T02:54:57.162Z,4.14
2023-02-28T02:55:57.159Z,4.98
2023-02-28T02:56:57.165Z,3.77
2023-02-28T02:57:57.192Z,4.86
2023-02-28T02:58:57.137Z,4.13
2023-02-28T02:59:57.157Z,4.26
2023-02-28T03:00:57.230Z,4.42
2023-02-28T03:01:57.140Z,3.78
2023-02-28T03:02:57.164Z,4.25
2023-02-28T03:03:57.236Z,3.80
2023-02-28T03:04:57.169Z,4.28
2023-02-28T03:05:57.138Z,4.80
2023-02-28T03:06:57.144Z,4.22
2023-02-28T03:07:57.173Z,3.74
2023-02-28T03:08:57.163Z,3.70
2023-02-28T03:09:57.175Z,4.55
2023-02-28T03:10:57.117Z,4.35
2023-02-28T03:11:57.140Z,4.51
2023-02-28T03:12:57.192Z,4.49
2023-02-28T03:13:57.114Z,3.99
2023-02-28T03:14:57.131Z,4.22
2023-02-28T03:15:57.191Z,4.14
2023-02-28T03:16:57.141Z,3.77
2023-02-28T03:17:57.120Z,4.34
2023-02-28T03:18:57.123Z,3.81
2023-02-28T03:19:57.080Z,4.08
2023-02-28T03:20:57.096Z,4.50
2023-02-28T03:21:57.105Z,4.56
2023-02-28T03:22:57.093Z,4.49
2023-02-28T03:23:57.113Z,4.46
2023-02-28T03:24:57.048Z,4.20
2023-02-28T03:25:57.077Z,4.30
2023-02-28T03:26:57.128Z,4.07
2023-02-28T03:27:57.102Z,3.57
2023-02-28T03:28:57.113Z,4.00
2023-02-28T03:29:57.132Z,3.97
2023-02-28T03:30:57.105Z,3.85
2023-02-28T03:31:57.229Z,4.55
2023-02-28T03:32:57.125Z,3.73
2023-02-28T03:33:57.153Z,3.88
2023-02-28T03:34:57.126Z,3.95
2023-02-28T03:35:57.184Z,3.81
2023-02-28T03:36:57.205Z,4.73
2023-02-28T03:37:57.190Z,4.01
2023-02-28T03:38:57.237Z,4.10
2023-02-28T03:39:57.213Z,4.29
2023-02-28T03:40:57.196Z,3.72
2023-02-28T03:41:57.224Z,4.02
2023-02-28T03:42:57.197Z,3.37
2023-02-28T03:43:57.197Z,4.54
2023-02-28T03:44:57.232Z,3.90
2023-02-28T03:45:57.359Z,4.10
2023-02-28T03:46:57.224Z,4.34
2023-02-28T03:47:57.183Z,3.52
2023-02-28T03:48:57.721Z,4.14
2023-02-28T03:49:57.196Z,4.15
2023-02-28T03:50:57.200Z,4.47
2023-02-28T03:51:57.181Z,4.49
2023-02-28T03:52:57.163Z,4.06
2023-02-28T03:53:57.160Z,4.62
2023-02-28T03:54:57.213Z,3.82
2023-02-28T03:55:57.223Z,4.67
2023-02-28T03:56:57.168Z,4.18
2023-02-28T03:57:57.188Z,4.00
2023-02-28T03:58:57.135Z,4.29
2023-02-28T03:59:57.204Z,3.67
2023-02-28T04:00:57.206Z,4.48
2023-02-28T04:01:57.174Z,4.32
2023-02-28T04:02:57.173Z,4.35
2023-02-28T04:03:57.158Z,4.36
2023-02-28T04:04:57.173Z,4.14
2023-02-28T04:05:57.153Z,4.05
2023-02-28T04:06:57.142Z,3.83
2023-02-28T04:07:57.139Z,3.89
2023-02-28T04:08:57.113Z,4.05
2023-02-28T04:09:57.148Z,4.40
2023-02-28T05:20:57.264Z,4.88
2023-02-28T05:44:57.586Z,4.30
2023-02-28T05:45:57.634Z,4.44
2023-02-28T05:46:57.609Z,4.30
2023-02-28T05:47:57.612Z,4.23
2023-02-28T05:48:57.718Z,4.23
2023-02-28T05:49:57.632Z,4.43
2023-02-28T05:50:57.658Z,4.80
2023-02-28T05:51:57.706Z,4.69
2023-02-28T05:52:57.658Z,4.39
2023-02-28T05:53:57.680Z,4.69
2023-02-28T05:54:57.704Z,4.71
2023-02-28T05:55:57.701Z,3.90
2023-02-28T05:56:57.727Z,4.30
2023-02-28T05:57:57.729Z,4.75
2023-02-28T05:58:57.759Z,4.30
2023-02-28T05:59:57.758Z,4.55
2023-02-28T06:02:17.031Z,4.66
2023-02-28T06:03:16.978Z,4.88
2023-02-28T06:04:30.720Z,4.89
2023-02-28T06:05:17.933Z,4.80
2023-02-28T06:06:16.901Z,4.97
2023-02-28T06:07:16.899Z,4.66
2023-02-28T06:08:16.908Z,4.41
2023-02-28T06:09:16.893Z,4.24
2023-02-28T06:10:16.870Z,4.09
2023-02-28T06:11:16.961Z,4.77
2023-02-28T06:12:16.900Z,4.28
2023-02-28T06:13:16.893Z,4.61
2023-02-28T06:14:16.872Z,4.75
2023-02-28T06:15:16.882Z,4.91
2023-02-28T06:16:16.898Z,4.31
2023-02-28T06:17:16.835Z,4.96
2023-02-28T06:18:16.816Z,4.44
2023-02-28T06:19:16.828Z,4.75
2023-02-28T06:20:16.818Z,4.96
2023-02-28T06:21:16.846Z,5.02
2023-02-28T06:22:16.815Z,4.73
2023-02-28T06:23:16.817Z,4.96
2023-02-28T06:24:16.804Z,4.94
2023-02-28T06:25:16.825Z,5.15
2023-02-28T06:26:16.831Z,5.00
2023-02-28T06:27:17.172Z,4.70
2023-02-28T06:28:16.856Z,4.44
2023-02-28T06:29:17.157Z,4.77
2023-02-28T06:30:16.862Z,5.42
2023-02-28T06:31:16.964Z,4.92
2023-02-28T06:32:16.973Z,4.80
2023-02-28T06:33:16.912Z,6.08
2023-02-28T06:34:17.139Z,8.40
2023-02-28T06:35:16.954Z,8.93
2023-02-28T06:36:17.017Z,8.63
2023-02-28T06:37:17.042Z,8.25
2023-02-28T06:38:17.062Z,8.85
2023-02-28T06:39:17.101Z,8.22
2023-02-28T06:40:17.227Z,8.48
2023-02-28T06:41:17.184Z,8.31
2023-02-28T06:42:17.193Z,8.23
2023-02-28T06:43:17.246Z,8.77
2023-02-28T06:44:17.283Z,9.77
2023-02-28T06:45:17.379Z,9.00
2023-02-28T06:46:17.449Z,7.69
2023-02-28T06:47:17.452Z,8.78
2023-02-28T06:48:17.493Z,7.28
2023-02-28T06:51:17.735Z,7.54
2023-02-28T06:52:17.695Z,7.36
2023-02-28T06:53:17.744Z,7.76
2023-02-28T06:54:17.774Z,8.11
2023-02-28T06:55:18.176Z,8.20
2023-02-28T06:56:17.852Z,7.72
2023-02-28T06:57:17.865Z,7.90
2023-02-28T06:58:17.862Z,7.30
2023-02-28T06:59:17.876Z,6.88
2023-02-28T07:00:17.885Z,7.37
2023-02-28T07:01:17.901Z,7.07
2023-02-28T07:02:17.903Z,8.03
2023-02-28T07:03:17.895Z,8.48
2023-02-28T07:04:18.014Z,10.08
2023-02-28T07:05:17.931Z,10.68
2023-02-28T07:06:17.983Z,10.37
2023-02-28T07:07:17.963Z,9.11
2023-02-28T07:08:18.001Z,8.89
2023-02-28T07:09:18.044Z,7.67
2023-02-28T07:10:20.104Z,8.45
2023-02-28T07:11:18.136Z,8.70
2023-02-28T07:12:18.059Z,8.89
2023-02-28T07:13:18.122Z,8.48
2023-02-28T07:14:18.128Z,8.73
2023-02-28T07:15:18.129Z,8.06
2023-02-28T07:16:18.206Z,8.26
2023-02-28T07:17:18.204Z,8.27
2023-02-28T07:18:18.151Z,8.36
2023-02-28T07:19:18.149Z,9.14
2023-02-28T07:20:18.157Z,9.44
2023-02-28T07:21:18.235Z,8.99
2023-02-28T07:22:18.233Z,9.09
2023-02-28T07:23:18.206Z,8.87
2023-02-28T07:24:18.221Z,8.86
2023-02-28T07:25:18.214Z,9.35
2023-02-28T07:26:18.464Z,8.16
2023-02-28T07:27:18.273Z,7.78
2023-02-28T07:28:18.223Z,8.35
2023-02-28T07:29:18.279Z,8.87
2023-02-28T07:30:18.687Z,8.11
2023-02-28T07:31:18.447Z,7.95
2023-02-28T07:32:18.351Z,8.08
2023-02-28T07:33:18.328Z,7.61
2023-02-28T07:34:18.322Z,7.33
2023-02-28T07:35:18.684Z,7.73
2023-02-28T07:36:18.454Z,8.26
2023-02-28T07:37:18.437Z,7.92
2023-02-28T07:38:18.460Z,8.14
2023-02-28T07:39:19.185Z,8.35
2023-02-28T07:40:18.746Z,8.72
2023-02-28T07:41:18.503Z,7.95
2023-02-28T07:42:18.528Z,7.47
2023-02-28T07:43:18.518Z,8.14
2023-02-28T07:44:18.608Z,7.87
2023-02-28T07:45:18.615Z,8.43
2023-02-28T07:46:18.766Z,8.49
2023-02-28T07:47:18.682Z,7.74
2023-02-28T07:48:18.671Z,7.70
2023-02-28T07:49:18.751Z,9.07
2023-02-28T07:50:18.826Z,8.88
2023-02-28T07:51:18.874Z,8.31
2023-02-28T07:52:18.924Z,8.69
2023-02-28T07:53:18.918Z,8.63
2023-02-28T07:54:19.019Z,7.58
2023-02-28T07:55:19.076Z,8.67
2023-02-28T07:56:19.088Z,7.45
2023-02-28T07:57:19.168Z,8.19
2023-02-28T07:58:19.210Z,7.80
2023-02-28T07:59:19.221Z,8.44
2023-02-28T08:00:19.451Z,8.11
2023-02-28T08:01:19.679Z,8.04
2023-02-28T08:02:19.394Z,8.13
2023-02-28T08:03:19.446Z,7.68
2023-02-28T08:04:19.458Z,8.36
2023-02-28T08:05:21.992Z,7.53
2023-02-28T08:06:19.495Z,8.46
2023-02-28T08:07:19.613Z,8.40
2023-02-28T08:08:19.534Z,8.86
2023-02-28T08:09:19.604Z,9.08
2023-02-28T08:10:19.551Z,8.65
2023-02-28T08:11:19.544Z,7.83
2023-02-28T08:12:19.545Z,8.60
2023-02-28T08:13:19.565Z,8.46
2023-02-28T08:14:19.577Z,8.81
2023-02-28T08:15:19.556Z,8.86
2023-02-28T08:16:19.666Z,9.18
2023-02-28T08:17:19.597Z,9.15
2023-02-28T08:18:19.614Z,9.30
2023-02-28T08:19:19.615Z,8.75
2023-02-28T08:20:19.628Z,9.13
2023-02-28T08:21:19.710Z,9.32
2023-02-28T08:25:19.805Z,7.56
2023-02-28T08:26:19.728Z,7.55
2023-02-28T08:27:19.658Z,7.13
2023-02-28T08:28:19.692Z,7.17
2023-02-28T08:29:19.641Z,7.53
2023-02-28T08:30:19.821Z,6.60
2023-02-28T08:31:19.776Z,6.76
2023-02-28T08:32:29.434Z,7.27
2023-02-28T08:33:20.678Z,8.31
2023-02-28T08:34:19.692Z,7.89
2023-02-28T08:35:19.759Z,7.87
2023-02-28T08:36:19.749Z,9.66
2023-02-28T08:37:19.687Z,10.46
2023-02-28T08:38:19.690Z,11.54
2023-02-28T08:39:19.809Z,13.45
2023-02-28T08:40:19.754Z,13.30
2023-02-28T08:41:19.705Z,11.94
2023-02-28T08:42:19.687Z,11.83
2023-02-28T08:43:19.726Z,15.49
2023-02-28T08:44:19.762Z,18.24
2023-02-28T08:45:19.825Z,27.32
2023-02-28T08:46:19.967Z,37.07
2023-02-28T08:47:19.965Z,95.07
2023-02-28T08:48:19.947Z,154.17
2023-02-28T08:49:20.096Z,183.65
2023-02-28T08:50:20.160Z,152.69
2023-02-28T08:51:20.906Z,145.87
2023-02-28T08:52:20.418Z,148.15
2023-02-28T08:53:20.223Z,151.91
2023-02-28T08:54:20.244Z,151.21
2023-02-28T08:55:20.275Z,136.79
2023-02-28T08:56:20.751Z,128.57
2023-02-28T08:58:20.382Z,132.96
2023-02-28T08:59:20.433Z,122.73
2023-02-28T09:00:20.517Z,120.25
2023-02-28T09:01:20.516Z,95.80
2023-02-28T09:02:20.808Z,96.04
2023-02-28T09:03:22.147Z,103.27
2023-02-28T09:04:21.178Z,94.79
2023-02-28T09:05:20.554Z,91.65
2023-02-28T09:06:20.536Z,98.66
2023-02-28T09:07:20.713Z,96.05
2023-02-28T09:08:20.501Z,87.91
2023-02-28T09:11:20.521Z,79.11
2023-02-28T09:12:20.696Z,72.10
2023-02-28T09:13:20.468Z,73.83
2023-02-28T09:14:20.615Z,69.87
2023-02-28T09:15:20.448Z,60.71
2023-02-28T09:19:20.463Z,79.56
2023-02-28T09:20:20.446Z,80.58
2023-02-28T09:21:20.484Z,83.43
2023-02-28T09:22:20.473Z,93.46
2023-02-28T09:23:20.467Z,93.26
2023-02-28T09:28:20.469Z,95.32
2023-02-28T11:38:24.300Z,10.22
2023-02-28T11:44:23.993Z,10.85
2023-02-28T11:45:24.053Z,9.16
2023-02-28T11:46:24.095Z,9.99
2023-02-28T11:47:24.082Z,8.63
2023-02-28T11:48:24.162Z,7.46
2023-02-28T11:49:24.150Z,8.10
2023-02-28T11:50:24.193Z,8.01
2023-02-28T11:51:24.266Z,8.10
2023-02-28T11:52:24.266Z,6.85
2023-02-28T11:53:26.392Z,7.81
2023-02-28T11:54:24.311Z,7.35
2023-02-28T11:55:24.314Z,7.40
2023-02-28T11:56:24.345Z,8.03
2023-02-28T11:57:24.334Z,9.98
2023-02-28T11:58:24.316Z,9.91
2023-02-28T11:59:24.347Z,9.40
2023-02-28T12:00:24.361Z,9.56
2023-02-28T12:01:24.383Z,9.72
2023-02-28T12:02:24.380Z,10.45
2023-02-28T12:03:24.402Z,8.72
2023-02-28T12:04:24.394Z,9.75
2023-02-28T12:05:24.369Z,8.94
2023-02-28T12:06:24.400Z,8.36
2023-02-28T12:07:24.414Z,9.87
2023-02-28T12:08:24.768Z,9.89
2023-02-28T12:09:24.526Z,9.46
2023-02-28T12:10:24.466Z,9.26
2023-02-28T12:11:24.473Z,9.47
2023-02-28T12:12:25.370Z,8.32
2023-02-28T12:13:24.510Z,9.76
2023-02-28T12:14:24.512Z,10.46
2023-02-28T12:15:24.501Z,9.24
2023-02-28T12:16:24.534Z,9.37
2023-02-28T12:17:24.481Z,8.66
2023-02-28T12:18:24.497Z,9.30
2023-02-28T12:19:24.572Z,8.89
2023-02-28T12:20:24.639Z,9.21
2023-02-28T12:21:24.576Z,8.84
2023-02-28T12:22:24.599Z,8.92
2023-02-28T12:23:24.783Z,9.53
2023-02-28T12:24:24.590Z,9.69
2023-02-28T12:25:24.644Z,9.71
2023-02-28T12:26:24.600Z,9.16
2023-02-28T12:27:25.956Z,9.05
2023-02-28T12:28:24.774Z,8.62
2023-02-28T12:29:24.731Z,7.83
2023-02-28T12:30:24.732Z,8.21
2023-02-28T12:31:24.803Z,6.50
2023-02-28T12:32:24.867Z,6.18
2023-02-28T12:33:25.309Z,7.31
2023-02-28T12:34:24.888Z,7.11
2023-02-28T12:35:24.901Z,7.09
2023-02-28T12:36:25.031Z,8.07
2023-02-28T12:37:24.931Z,9.05
2023-02-28T12:38:25.426Z,9.33
2023-02-28T12:39:25.291Z,9.50
2023-02-28T12:40:25.018Z,8.46
2023-02-28T12:41:25.066Z,9.26
2023-02-28T12:42:25.155Z,8.42
2023-02-28T12:43:25.198Z,8.97
2023-02-28T12:44:25.316Z,8.58
2023-02-28T12:49:25.528Z,437.64
2023-02-28T12:50:25.561Z,404.41
2023-02-28T12:51:25.647Z,352.59
2023-02-28T12:52:25.657Z,333.47
2023-02-28T12:53:25.674Z,324.29
2023-02-28T12:54:25.724Z,302.81
2023-02-28T12:55:25.784Z,344.44
2023-02-28T12:56:25.773Z,363.25
2023-02-28T12:57:26.008Z,443.74
2023-02-28T12:58:25.870Z,489.99
2023-02-28T12:59:25.921Z,500.49
2023-02-28T13:00:25.912Z,452.65
2023-02-28T13:01:25.986Z,470.94
2023-02-28T13:02:26.024Z,474.55
2023-02-28T13:03:26.018Z,448.11
2023-02-28T17:02:34.143Z,7.82
2023-02-28T17:03:34.384Z,7.64
2023-02-28T17:04:34.104Z,7.66
2023-02-28T17:05:34.108Z,7.38
2023-02-28T17:06:34.163Z,7.13
2023-02-28T17:07:34.209Z,7.95
2023-02-28T17:08:34.228Z,6.84
2023-02-28T17:09:42.501Z,6.41
2023-02-28T17:10:35.313Z,8.18
2023-02-28T17:11:34.284Z,8.16
2023-02-28T17:12:34.310Z,7.44
2023-02-28T17:13:34.303Z,6.81
2023-02-28T17:14:34.389Z,6.51
2023-02-28T17:15:34.423Z,7.30
2023-02-28T17:16:34.560Z,6.94
2023-02-28T17:17:34.359Z,7.63
2023-02-28T17:18:34.434Z,8.32
2023-02-28T17:19:34.406Z,7.36
2023-02-28T17:20:34.372Z,7.19
2023-02-28T17:21:34.427Z,7.14
2023-02-28T17:22:34.412Z,7.57
2023-02-28T17:23:34.447Z,7.77
2023-02-28T17:24:34.465Z,7.88
2023-02-28T17:25:34.428Z,8.02
2023-02-28T17:26:34.504Z,7.88
2023-02-28T17:27:34.574Z,8.25
2023-02-28T17:28:34.575Z,7.21
2023-02-28T17:29:34.641Z,7.30
2023-02-28T17:30:34.682Z,8.42
2023-02-28T17:31:34.721Z,8.03
2023-02-28T17:32:34.848Z,8.23
2023-02-28T17:33:34.817Z,8.08
2023-02-28T17:34:34.846Z,8.52
2023-02-28T17:35:34.918Z,7.86
2023-02-28T17:36:34.971Z,7.86
2023-02-28T17:37:35.039Z,8.12
2023-02-28T17:38:35.088Z,7.78
2023-02-28T17:39:35.154Z,7.66
2023-02-28T17:40:35.184Z,8.49
2023-02-28T17:41:35.242Z,8.20
2023-02-28T17:42:35.241Z,8.47
2023-02-28T17:43:35.358Z,8.11
2023-02-28T17:44:35.410Z,7.90
2023-02-28T17:45:35.452Z,8.93
2023-02-28T17:46:35.576Z,8.70
2023-02-28T17:47:35.575Z,7.96
2023-02-28T17:48:35.605Z,8.17
2023-02-28T19:37:11.187Z,10.04
2023-02-28T19:38:11.190Z,10.06
2023-02-28T19:39:11.143Z,8.81
2023-02-28T19:40:11.139Z,9.12
2023-02-28T19:41:11.156Z,9.91
2023-02-28T19:42:11.143Z,9.87
2023-02-28T19:43:11.139Z,9.41
2023-02-28T19:44:11.127Z,9.18
2023-02-28T19:45:11.125Z,9.31
2023-02-28T19:46:11.239Z,10.10
2023-02-28T19:47:11.130Z,10.67
2023-02-28T19:48:11.156Z,9.75
2023-02-28T19:49:11.156Z,10.49
2023-02-28T19:50:11.123Z,9.38
2023-02-28T19:51:11.174Z,8.91
2023-02-28T19:52:13.565Z,9.12
2023-02-28T19:53:11.109Z,9.76
2023-02-28T19:54:11.156Z,10.22
2023-02-28T19:55:11.109Z,9.01
2023-02-28T19:56:11.121Z,9.58
2023-02-28T19:57:11.125Z,9.32
2023-02-28T19:58:11.125Z,9.58
2023-02-28T19:59:21.100Z,9.98
2023-02-28T20:00:12.110Z,9.77
2023-02-28T20:01:11.175Z,9.82
2023-02-28T20:02:11.099Z,9.89
2023-02-28T20:03:11.099Z,9.85
2023-02-28T20:04:11.130Z,10.20
2023-02-28T20:05:11.100Z,9.73
2023-02-28T20:06:11.096Z,10.09
2023-02-28T20:07:11.096Z,9.82
2023-02-28T20:08:11.077Z,9.80
2023-02-28T20:09:11.100Z,10.52
2023-02-28T20:10:11.108Z,9.27
2023-02-28T20:11:11.185Z,9.78
2023-02-28T20:12:23.261Z,10.07
2023-02-28T20:13:12.189Z,10.34
2023-02-28T20:14:11.158Z,10.36
2023-02-28T20:15:11.170Z,10.14
2023-02-28T20:16:11.178Z,10.90
2023-02-28T20:17:11.237Z,10.23
2023-02-28T20:18:11.148Z,11.05
2023-02-28T20:19:11.181Z,11.56
2023-02-28T20:20:11.173Z,10.05
2023-02-28T20:21:11.235Z,10.33
2023-02-28T20:22:11.142Z,9.69
2023-02-28T20:23:11.159Z,9.86
2023-02-28T20:24:11.204Z,9.36
2023-02-28T20:25:11.224Z,10.33
2023-02-28T20:26:11.282Z,10.18
2023-02-28T20:27:11.314Z,11.15
2023-02-28T20:28:11.340Z,9.84
2023-02-28T20:29:11.417Z,10.24
2023-02-28T20:30:11.493Z,9.69
2023-02-28T20:31:11.584Z,10.11
2023-02-28T20:32:11.565Z,10.25
2023-02-28T20:33:11.617Z,10.97
2023-02-28T20:34:11.665Z,9.79
2023-02-28T20:35:11.869Z,10.91
2023-02-28T20:36:11.750Z,9.84
2023-02-28T20:37:11.782Z,11.13
2023-02-28T20:38:11.811Z,10.61
2023-02-28T20:39:11.874Z,10.28
2023-02-28T20:40:11.915Z,10.13
2023-02-28T20:41:11.957Z,10.17
2023-02-28T20:42:12.035Z,11.36
2023-02-28T20:43:12.042Z,10.74
2023-02-28T20:44:12.070Z,10.87
2023-02-28T20:45:12.115Z,11.30
2023-02-28T20:46:12.237Z,10.53
2023-02-28T20:47:12.193Z,11.26
2023-02-28T20:48:12.230Z,10.60
2023-02-28T20:49:12.282Z,11.35
2023-02-28T20:50:12.292Z,9.89
2023-02-28T20:51:12.362Z,10.73
2023-02-28T20:52:12.405Z,11.58
2023-02-28T20:53:12.416Z,10.70
2023-02-28T20:54:12.497Z,11.44
2023-02-28T20:55:12.542Z,10.35
2023-02-28T20:56:12.582Z,11.08
2023-02-28T20:57:12.591Z,11.20
2023-02-28T20:58:12.654Z,10.79
2023-02-28T20:59:12.695Z,10.71
2023-02-28T21:00:12.744Z,11.69
2023-02-28T21:01:13.009Z,11.14
2023-02-28T21:02:12.847Z,10.47
2023-02-28T21:03:12.868Z,10.26
2023-02-28T21:04:12.929Z,10.46
2023-02-28T21:05:12.987Z,10.49
2023-02-28T21:06:13.018Z,11.27
2023-02-28T21:07:13.037Z,10.86
2023-02-28T21:08:13.083Z,10.85
2023-02-28T21:09:13.125Z,9.95
2023-02-28T21:10:13.176Z,10.62
2023-02-28T21:11:13.204Z,10.98
2023-02-28T21:12:13.236Z,10.35
2023-02-28T21:13:13.264Z,11.06
2023-02-28T21:14:13.326Z,10.82
2023-02-28T21:15:13.369Z,12.01
2023-02-28T21:16:13.441Z,10.93
2023-02-28T21:17:13.438Z,11.00
2023-02-28T21:18:13.438Z,11.37
2023-02-28T21:19:13.479Z,12.12
2023-02-28T21:20:13.520Z,11.41
2023-02-28T21:21:13.593Z,12.30
2023-02-28T21:22:13.605Z,11.16
2023-02-28T21:23:13.644Z,10.83
2023-02-28T21:24:13.658Z,11.00
2023-02-28T21:25:13.699Z,11.37
2023-02-28T21:26:13.733Z,10.66
2023-02-28T21:27:13.778Z,12.74
2023-02-28T21:28:13.825Z,13.19
2023-02-28T21:29:13.908Z,11.89
2023-02-28T21:30:13.911Z,11.95
2023-02-28T21:31:14.021Z,12.32
2023-02-28T21:32:14.068Z,10.81
2023-02-28T21:33:14.037Z,11.65
2023-02-28T21:34:14.097Z,12.32
2023-02-28T21:35:14.136Z,12.00
2023-02-28T21:36:14.178Z,11.77
2023-02-28T21:37:14.258Z,12.21
2023-02-28T21:38:14.269Z,11.64
2023-02-28T21:39:14.302Z,12.13
2023-02-28T21:40:14.385Z,12.53
2023-02-28T21:41:14.377Z,11.72
2023-02-28T21:42:14.434Z,12.08
2023-02-28T21:43:14.494Z,12.49
2023-02-28T21:44:14.504Z,12.80
2023-02-28T21:45:14.537Z,12.25
2023-02-28T21:46:14.620Z,11.22
2023-02-28T21:47:14.579Z,12.01
2023-02-28T21:48:14.650Z,11.54
2023-02-28T21:49:14.690Z,12.78
2023-02-28T21:50:14.692Z,12.33
2023-02-28T21:51:14.771Z,11.96
2023-02-28T21:52:14.786Z,11.76
2023-02-28T21:53:14.825Z,12.44
2023-02-28T21:54:14.881Z,12.40
2023-02-28T21:55:14.916Z,12.28
2023-02-28T21:56:14.989Z,11.19
2023-02-28T21:57:15.044Z,11.69
2023-02-28T21:58:15.053Z,12.50
2023-02-28T21:59:15.086Z,11.92
2023-02-28T22:00:15.088Z,12.31
2023-02-28T22:01:15.277Z,11.79
2023-02-28T22:02:15.177Z,11.98
2023-02-28T22:03:15.265Z,12.26
2023-02-28T22:04:15.268Z,11.11
2023-02-28T22:05:15.275Z,12.29
2023-02-28T22:06:15.315Z,11.36
2023-02-28T22:07:15.341Z,11.56
2023-02-28T22:08:15.382Z,11.23
2023-02-28T22:09:15.436Z,11.72
2023-02-28T22:11:21.170Z,11.03
2023-02-28T22:12:21.193Z,12.09
2023-02-28T22:13:21.202Z,11.42
2023-02-28T22:14:21.280Z,11.76
2023-02-28T22:15:21.264Z,11.53
2023-02-28T22:16:21.334Z,12.47
2023-02-28T22:17:21.316Z,11.56
2023-02-28T22:18:21.356Z,11.30
2023-02-28T22:19:21.361Z,12.93
2023-02-28T22:20:21.413Z,12.13
2023-02-28T22:21:21.438Z,11.79
2023-02-28T22:22:21.450Z,11.80
2023-02-28T22:23:21.491Z,10.78
2023-02-28T22:24:21.535Z,12.16
2023-02-28T22:25:21.537Z,11.66
2023-02-28T22:26:21.580Z,11.60
2023-02-28T22:27:21.582Z,11.38
2023-02-28T22:28:21.657Z,11.40
2023-02-28T22:29:21.661Z,11.95
2023-02-28T22:30:21.690Z,12.47
2023-02-28T22:31:21.748Z,11.57
2023-02-28T22:32:21.762Z,10.57
2023-02-28T22:33:21.747Z,11.61
2023-02-28T22:34:21.806Z,11.39
2023-02-28T22:35:21.870Z,11.61
2023-02-28T22:36:21.816Z,12.17
2023-02-28T22:37:21.841Z,12.30
2023-02-28T22:38:21.865Z,11.43
2023-02-28T22:39:21.879Z,12.41
2023-02-28T22:40:21.900Z,10.88
2023-02-28T22:41:21.944Z,11.28
2023-02-28T22:42:21.923Z,12.14
2023-02-28T22:43:21.945Z,12.55
2023-02-28T22:44:22.016Z,11.64
2023-02-28T22:45:22.015Z,11.18
2023-02-28T22:46:22.032Z,11.80
2023-02-28T22:47:22.073Z,11.26
2023-02-28T22:48:22.077Z,11.67
2023-02-28T22:49:22.113Z,11.47
2023-02-28T22:50:22.141Z,11.06
2023-02-28T22:51:22.143Z,11.29
2023-02-28T22:52:22.166Z,11.54
2023-02-28T22:53:22.205Z,11.13
2023-02-28T22:54:22.219Z,11.18
2023-02-28T22:55:22.218Z,11.55
2023-02-28T22:56:22.252Z,11.33
2023-02-28T22:58:22.314Z,11.50
2023-02-28T22:59:22.427Z,11.29
2023-02-28T23:00:22.363Z,11.27
2023-02-28T23:39:24.036Z,11.12
2023-02-28T23:40:24.090Z,10.62
2023-02-28T23:41:24.142Z,11.21
2023-02-28T23:42:24.210Z,11.40
2023-02-28T23:43:24.250Z,10.90
2023-02-28T23:44:24.340Z,12.69
2023-02-28T23:45:24.389Z,11.17
2023-02-28T23:46:24.430Z,12.28
2023-02-28T23:47:24.501Z,11.01
2023-02-28T23:48:24.578Z,10.56
2023-02-28T23:49:24.633Z,12.01
2023-02-28T23:50:24.695Z,11.18
2023-02-28T23:51:24.738Z,10.61
2023-02-28T23:52:24.799Z,11.46
2023-02-28T23:53:24.845Z,10.69
2023-02-28T23:54:24.921Z,11.64
2023-02-28T23:55:24.992Z,11.46
2023-02-28T23:56:25.110Z,11.57
2023-02-28T23:57:25.075Z,11.97
2023-02-28T23:58:25.129Z,11.41
2023-02-28T23:59:25.187Z,10.74
